Time;durP1;ratioP1;P1;durP2;ratioP2;P2;SDS_P1;SDS_P2;PMS_P1;PMS_P2;Temp;Humidity;BMP_temperature;BMP_pressure;BME280_temperature;BME280_humidity;BME280_pressure;Samples;Min_cycle;Max_cycle;Signal;HPM_P1;HPM_P2
2021/08/01 00:01:35;;;;;;;3.33;2.90;;;18.60;99.90;;;;;;5044109;28;20439;-83
2021/08/01 00:04:02;;;;;;;4.00;2.93;;;18.60;99.90;;;;;;5042639;28;20451;-83
2021/08/01 00:06:28;;;;;;;2.30;2.20;;;18.50;99.90;;;;;;5041241;28;20475;-83
2021/08/01 00:08:56;;;;;;;2.80;2.60;;;18.50;99.90;;;;;;5043665;28;20473;-85
2021/08/01 00:11:23;;;;;;;3.43;3.10;;;18.50;99.90;;;;;;5053102;28;20447;-84
2021/08/01 00:13:50;;;;;;;3.17;2.87;;;18.40;99.90;;;;;;5052672;28;20509;-84
2021/08/01 00:16:16;;;;;;;2.33;2.13;;;18.40;99.90;;;;;;5054273;28;20485;-84
2021/08/01 00:18:43;;;;;;;3.97;2.50;;;18.50;99.90;;;;;;5051520;28;20463;-84
2021/08/01 00:21:09;;;;;;;2.33;2.13;;;18.50;99.90;;;;;;5044620;28;20443;-84
2021/08/01 00:23:36;;;;;;;3.10;2.70;;;18.50;99.90;;;;;;5042534;28;20502;-84
2021/08/01 00:26:04;;;;;;;5.67;3.80;;;18.50;99.90;;;;;;5042068;28;20498;-84
2021/08/01 00:28:31;;;;;;;3.00;2.80;;;18.50;99.90;;;;;;5041798;28;20455;-84
2021/08/01 00:30:59;;;;;;;2.97;2.33;;;18.60;99.90;;;;;;5041419;28;20949;-84
2021/08/01 00:33:26;;;;;;;4.97;3.50;;;18.50;99.90;;;;;;5041036;28;20479;-84
2021/08/01 00:35:52;;;;;;;3.37;2.37;;;18.40;99.90;;;;;;5042217;28;20475;-84
2021/08/01 00:38:19;;;;;;;3.53;3.23;;;18.50;99.90;;;;;;5044192;28;20447;-84
2021/08/01 00:40:45;;;;;;;2.77;2.57;;;18.40;99.90;;;;;;5043864;28;20457;-84
2021/08/01 00:43:13;;;;;;;3.50;2.67;;;18.40;99.90;;;;;;5041777;28;20443;-84
2021/08/01 00:45:40;;;;;;;3.03;2.83;;;18.40;99.90;;;;;;5042586;28;20486;-84
2021/08/01 00:48:09;;;;;;;2.50;2.40;;;18.40;99.90;;;;;;5042779;28;20486;-84
2021/08/01 00:50:36;;;;;;;9.40;3.23;;;18.40;99.90;;;;;;5048847;28;20457;-84
2021/08/01 00:53:03;;;;;;;3.00;2.70;;;18.90;99.90;;;;;;5045912;28;20544;-84
2021/08/01 00:55:30;;;;;;;4.40;2.80;;;18.30;99.90;;;;;;5040468;28;20882;-85
2021/08/01 00:57:56;;;;;;;3.00;2.80;;;18.20;99.90;;;;;;5052881;28;20435;-84
2021/08/01 01:00:38;;;;;;;4.20;2.80;;;18.20;99.90;;;;;;5054758;28;20446;-83
2021/08/01 01:03:14;;;;;;;3.13;2.87;;;18.10;99.90;;;;;;5039684;28;20523;-84
2021/08/01 01:05:47;;;;;;;3.67;2.87;;;18.10;99.90;;;;;;5040472;28;20470;-84
2021/08/01 01:08:18;;;;;;;2.50;2.30;;;18.10;99.90;;;;;;5040354;28;20435;-83
2021/08/01 01:10:48;;;;;;;3.60;2.95;;;18.00;99.90;;;;;;5040080;28;20489;-84
2021/08/01 01:13:19;;;;;;;3.60;3.33;;;18.00;99.90;;;;;;5041101;28;20686;-84
2021/08/01 01:15:48;;;;;;;2.70;2.50;;;18.00;99.90;;;;;;5043407;28;20506;-84
2021/08/01 01:18:20;;;;;;;4.33;2.60;;;18.00;99.90;;;;;;5040600;28;20451;-84
2021/08/01 01:21:02;;;;;;;3.27;2.97;;;18.00;99.90;;;;;;5040530;28;20436;-84
2021/08/01 01:23:38;;;;;;;3.37;2.43;;;17.90;99.90;;;;;;5041418;28;20435;-84
2021/08/01 01:26:07;;;;;;;3.27;2.93;;;18.00;99.90;;;;;;5048958;28;20453;-83
2021/08/01 01:28:39;;;;;;;3.63;2.77;;;17.90;99.90;;;;;;5059298;28;20455;-82
2021/08/01 01:31:20;;;;;;;3.50;3.30;;;17.90;99.90;;;;;;5059979;28;20478;-83
2021/08/01 01:34:03;;;;;;;3.87;3.23;;;17.90;99.90;;;;;;5059508;28;20498;-81
2021/08/01 01:36:31;;;;;;;2.83;2.60;;;17.90;99.90;;;;;;5059318;28;20451;-81
2021/08/01 01:39:01;;;;;;;5.13;3.40;;;17.80;99.90;;;;;;5059044;28;20469;-83
2021/08/01 01:41:28;;;;;;;3.10;2.90;;;17.90;99.90;;;;;;5059048;28;20464;-82
2021/08/01 01:43:56;;;;;;;3.40;3.10;;;17.80;99.90;;;;;;5058944;28;20451;-82
2021/08/01 01:46:25;;;;;;;3.53;3.20;;;17.70;99.90;;;;;;5055785;28;20473;-84
2021/08/01 01:48:53;;;;;;;4.93;3.30;;;17.70;99.90;;;;;;5056024;28;20455;-82
2021/08/01 01:51:20;;;;;;;3.63;3.30;;;17.80;99.90;;;;;;5057314;28;20447;-82
2021/08/01 01:53:48;;;;;;;4.60;3.20;;;17.70;99.90;;;;;;5056872;28;20491;-83
2021/08/01 01:56:15;;;;;;;3.27;3.07;;;17.70;99.90;;;;;;5056338;28;20439;-84
2021/08/01 01:58:43;;;;;;;3.17;2.87;;;17.60;99.90;;;;;;5054571;28;20454;-84
2021/08/01 02:01:09;;;;;;;4.10;3.20;;;17.60;99.90;;;;;;5048026;28;20522;-84
2021/08/01 02:03:36;;;;;;;4.23;3.47;;;17.60;99.90;;;;;;5053930;28;20419;-83
2021/08/01 02:06:03;;;;;;;3.33;3.13;;;17.50;99.90;;;;;;5056184;28;20450;-83
2021/08/01 02:08:36;;;;;;;4.23;3.80;;;17.50;99.90;;;;;;5056088;28;20443;-83
2021/08/01 02:11:07;;;;;;;5.80;3.40;;;17.40;99.90;;;;;;5055994;28;20432;-83
2021/08/01 02:13:41;;;;;;;4.37;3.03;;;17.40;99.90;;;;;;5050624;28;20476;-84
2021/08/01 02:16:09;;;;;;;3.70;3.50;;;17.50;99.90;;;;;;5037390;28;20467;-83
2021/08/01 02:18:40;;;;;;;6.43;3.23;;;17.40;99.90;;;;;;5036011;28;20451;-84
2021/08/01 02:21:09;;;;;;;5.87;4.40;;;17.40;99.90;;;;;;5036274;28;20447;-84
2021/08/01 02:23:41;;;;;;;3.70;3.40;;;17.40;99.90;;;;;;5036873;28;20443;-84
2021/08/01 02:26:12;;;;;;;6.00;3.70;;;17.30;99.90;;;;;;5036619;28;20467;-84
2021/08/01 02:28:40;;;;;;;6.63;3.63;;;17.20;99.90;;;;;;5036799;28;20432;-84
2021/08/01 02:31:08;;;;;;;3.57;3.37;;;17.20;99.90;;;;;;5037398;28;20848;-84
2021/08/01 02:33:36;;;;;;;4.93;3.33;;;17.20;99.90;;;;;;5035921;28;20482;-84
2021/08/01 02:36:06;;;;;;;5.43;3.53;;;17.30;99.90;;;;;;5036958;28;21020;-84
2021/08/01 02:38:35;;;;;;;3.67;3.33;;;17.30;99.90;;;;;;5038032;28;20515;-84
2021/08/01 02:41:05;;;;;;;2.93;2.60;;;17.40;99.90;;;;;;5036625;28;20451;-84
2021/08/01 02:43:34;;;;;;;4.07;3.47;;;17.50;99.90;;;;;;5037859;28;20426;-84
2021/08/01 02:46:04;;;;;;;3.47;3.23;;;17.50;99.90;;;;;;5037652;28;20505;-84
2021/08/01 02:48:33;;;;;;;5.23;3.97;;;17.60;99.90;;;;;;5037997;28;20490;-84
2021/08/01 02:51:02;;;;;;;3.63;3.33;;;17.60;99.90;;;;;;5037314;28;20451;-84
2021/08/01 02:53:31;;;;;;;3.63;3.43;;;17.50;99.90;;;;;;5037196;28;20484;-83
2021/08/01 02:56:00;;;;;;;7.57;4.20;;;17.50;99.90;;;;;;5036681;28;20470;-84
2021/08/01 02:58:30;;;;;;;3.83;3.50;;;17.40;99.90;;;;;;5038128;28;20455;-83
2021/08/01 03:00:58;;;;;;;4.73;3.40;;;17.40;99.90;;;;;;5041352;28;20439;-84
2021/08/01 03:03:26;;;;;;;8.30;4.00;;;17.40;99.90;;;;;;5040694;28;20454;-84
2021/08/01 03:05:53;;;;;;;4.30;3.90;;;17.20;99.90;;;;;;5038631;28;20530;-83
2021/08/01 03:08:20;;;;;;;6.83;3.23;;;17.20;99.90;;;;;;5038583;28;20857;-83
2021/08/01 03:10:48;;;;;;;3.90;3.20;;;17.20;99.90;;;;;;5037660;28;20479;-84
2021/08/01 03:13:15;;;;;;;3.80;3.50;;;17.20;99.90;;;;;;5044452;28;20513;-83
2021/08/01 03:15:43;;;;;;;5.97;3.73;;;17.20;99.90;;;;;;5057368;28;20471;-82
2021/08/01 03:18:11;;;;;;;3.80;3.53;;;17.10;99.90;;;;;;5052756;28;20438;-83
2021/08/01 03:20:37;;;;;;;3.67;3.40;;;17.00;99.90;;;;;;5044075;28;20447;-84
2021/08/01 03:23:04;;;;;;;5.30;4.17;;;17.00;99.90;;;;;;5038284;28;20498;-85
2021/08/01 03:25:31;;;;;;;3.73;3.30;;;17.00;99.90;;;;;;5038089;28;20475;-84
2021/08/01 03:27:57;;;;;;;4.40;4.10;;;16.90;99.90;;;;;;5037855;28;20451;-84
2021/08/01 03:30:24;;;;;;;4.37;3.97;;;17.00;99.90;;;;;;5037040;28;20450;-85
2021/08/01 03:32:50;;;;;;;4.30;3.90;;;16.90;99.90;;;;;;5037151;28;20483;-85
2021/08/01 03:35:20;;;;;;;3.67;3.37;;;16.80;99.90;;;;;;5037044;28;20470;-85
2021/08/01 03:37:47;;;;;;;4.00;3.80;;;16.80;99.90;;;;;;5037236;28;20493;-85
2021/08/01 03:40:14;;;;;;;4.00;3.47;;;16.80;99.90;;;;;;5037485;28;20447;-85
2021/08/01 03:42:41;;;;;;;4.60;4.20;;;16.70;99.90;;;;;;5037837;28;20451;-85
2021/08/01 03:45:09;;;;;;;4.13;3.80;;;16.70;99.90;;;;;;5040178;28;20474;-85
2021/08/01 03:47:36;;;;;;;4.60;4.20;;;16.70;99.90;;;;;;5041413;28;20481;-86
2021/08/01 03:50:03;;;;;;;4.97;4.57;;;;;;;;;;5041866;28;20482;-84
2021/08/01 03:52:31;;;;;;;4.50;4.10;;;16.80;99.90;;;;;;5041376;28;20447;-85
2021/08/01 03:54:57;;;;;;;4.50;4.20;;;16.70;99.90;;;;;;5041197;28;20490;-84
2021/08/01 03:57:24;;;;;;;4.17;3.87;;;16.80;99.90;;;;;;5040876;28;20470;-84
2021/08/01 03:59:51;;;;;;;4.07;3.70;;;16.70;99.90;;;;;;5040972;28;20455;-84
2021/08/01 04:02:18;;;;;;;4.30;4.00;;;16.70;99.90;;;;;;5041888;28;20512;-85
2021/08/01 04:04:44;;;;;;;3.90;3.60;;;16.70;99.90;;;;;;5041876;28;20463;-85
2021/08/01 04:07:11;;;;;;;5.30;4.20;;;16.70;99.90;;;;;;5042588;28;20449;-84
2021/08/01 04:09:38;;;;;;;9.70;4.20;;;16.70;99.90;;;;;;5041071;28;20486;-85
2021/08/01 04:12:06;;;;;;;4.90;3.90;;;16.70;99.90;;;;;;5042643;28;20450;-86
2021/08/01 04:14:33;;;;;;;5.30;4.37;;;16.70;99.90;;;;;;5043510;28;20486;-85
2021/08/01 04:17:00;;;;;;;4.20;3.60;;;16.70;99.90;;;;;;5051814;28;20439;-85
2021/08/01 04:19:28;;;;;;;8.20;4.30;;;16.70;99.90;;;;;;5045286;28;20462;-87
2021/08/01 04:21:55;;;;;;;4.47;4.07;;;16.80;99.90;;;;;;5039715;28;20443;-87
2021/08/01 04:24:21;;;;;;;8.70;4.73;;;16.80;99.90;;;;;;5039253;28;20443;-88
2021/08/01 04:26:50;;;;;;;7.93;4.13;;;16.80;99.90;;;;;;5041098;28;20478;-87
2021/08/01 04:29:17;;;;;;;5.07;4.40;;;;;;;;;;5051980;28;20470;-85
2021/08/01 04:31:43;;;;;;;3.70;3.40;;;16.80;99.90;;;;;;5060368;28;20447;-85
2021/08/01 04:34:17;;;;;;;5.57;4.57;;;16.80;99.90;;;;;;5060892;28;20463;-85
2021/08/01 04:36:43;;;;;;;4.53;4.13;;;17.10;99.90;;;;;;5055798;28;20439;-88
2021/08/01 04:39:10;;;;;;;4.40;4.00;;;16.60;99.90;;;;;;5044000;28;20445;-89
2021/08/01 04:41:37;;;;;;;3.80;3.50;;;16.90;99.90;;;;;;5041366;28;20432;-88
2021/08/01 04:44:09;;;;;;;6.50;5.53;;;16.90;99.90;;;;;;5040153;28;20447;-87
2021/08/01 04:46:37;;;;;;;5.57;5.07;;;;;;;;;;5041980;28;20855;-86
2021/08/01 04:49:04;;;;;;;4.37;3.97;;;;;;;;;;5041075;28;20459;-86
2021/08/01 04:51:30;;;;;;;4.20;3.90;;;17.00;99.90;;;;;;5041405;28;20508;-88
2021/08/01 04:53:59;;;;;;;11.27;7.30;;;17.10;99.90;;;;;;5044825;28;20463;-88
2021/08/01 04:56:25;;;;;;;5.90;4.63;;;17.20;99.90;;;;;;5057949;28;20767;-88
2021/08/01 04:58:52;;;;;;;5.93;5.23;;;17.20;99.90;;;;;;5043386;28;20462;-88
2021/08/01 05:01:20;;;;;;;4.43;3.90;;;17.30;99.90;;;;;;5038619;28;20443;-86
2021/08/01 05:03:47;;;;;;;5.73;3.30;;;17.20;99.90;;;;;;5039520;28;20500;-86
2021/08/01 05:06:13;;;;;;;3.90;3.60;;;17.30;99.90;;;;;;5040273;28;20471;-85
2021/08/01 05:08:40;;;;;;;5.00;4.10;;;17.20;99.90;;;;;;5040329;28;20509;-86
2021/08/01 05:11:07;;;;;;;5.07;4.67;;;17.30;99.90;;;;;;5042225;28;20475;-86
2021/08/01 05:13:34;;;;;;;4.33;3.50;;;17.30;99.90;;;;;;5055201;28;20479;-86
2021/08/01 05:16:00;;;;;;;5.30;3.80;;;17.30;99.90;;;;;;5049173;28;20509;-87
2021/08/01 05:18:28;;;;;;;3.60;3.30;;;17.20;99.90;;;;;;5049871;28;20551;-86
2021/08/01 05:20:55;;;;;;;4.10;3.70;;;17.20;99.90;;;;;;5050611;28;20508;-86
2021/08/01 05:23:21;;;;;;;6.03;4.67;;;17.20;99.90;;;;;;5041992;28;20451;-86
2021/08/01 05:25:48;;;;;;;4.83;3.77;;;17.30;99.90;;;;;;5046051;28;20467;-86
2021/08/01 05:28:15;;;;;;;4.30;4.00;;;17.30;99.90;;;;;;5041666;28;20478;-86
2021/08/01 05:30:41;;;;;;;12.50;8.27;;;17.30;99.90;;;;;;5040624;28;20451;-85
2021/08/01 05:33:09;;;;;;;6.67;4.83;;;17.40;99.90;;;;;;5039500;28;20623;-85
2021/08/01 05:35:38;;;;;;;6.73;5.90;;;17.40;99.90;;;;;;5042956;28;20471;-86
2021/08/01 05:38:05;;;;;;;7.40;6.43;;;17.40;99.90;;;;;;5042894;28;20501;-85
2021/08/01 05:40:32;;;;;;;11.60;6.90;;;17.40;99.90;;;;;;5042174;28;20428;-85
2021/08/01 05:43:00;;;;;;;6.93;6.23;;;17.40;99.90;;;;;;5042121;28;20578;-85
2021/08/01 05:45:27;;;;;;;4.50;3.50;;;17.30;99.90;;;;;;5066945;22;20490;-84
2021/08/01 05:47:54;;;;;;;9.70;7.00;;;17.40;99.90;;;;;;5043288;28;20443;-85
2021/08/01 05:50:20;;;;;;;6.80;5.82;;;17.50;99.90;;;;;;5039836;28;20957;-85
2021/08/01 05:52:48;;;;;;;11.03;7.80;;;17.50;99.90;;;;;;5046450;28;20211;-85
2021/08/01 05:55:15;;;;;;;7.57;5.27;;;17.40;99.90;;;;;;5042841;28;20490;-85
2021/08/01 05:57:41;;;;;;;7.10;5.70;;;17.50;99.90;;;;;;5046284;28;20431;-84
2021/08/01 06:00:09;;;;;;;10.93;8.47;;;17.50;99.90;;;;;;5054891;28;20444;-84
2021/08/01 06:02:36;;;;;;;7.47;6.57;;;17.30;99.90;;;;;;5055568;28;20429;-85
2021/08/01 06:05:02;;;;;;;9.57;7.20;;;17.40;99.90;;;;;;5058727;28;20227;-84
2021/08/01 06:07:29;;;;;;;8.17;6.60;;;17.40;99.90;;;;;;5058391;28;20431;-87
2021/08/01 06:09:57;;;;;;;5.43;4.90;;;17.40;99.90;;;;;;5058177;28;20432;-82
2021/08/01 06:12:24;;;;;;;6.57;5.50;;;17.40;99.90;;;;;;5055153;28;20443;-85
2021/08/01 06:14:51;;;;;;;4.87;4.37;;;17.50;99.90;;;;;;5058782;28;20478;-86
2021/08/01 06:17:18;;;;;;;4.80;4.40;;;17.50;99.90;;;;;;5053085;28;20459;-86
2021/08/01 06:19:44;;;;;;;7.47;6.17;;;17.50;99.90;;;;;;5044123;28;20450;-86
2021/08/01 06:22:11;;;;;;;6.43;4.60;;;17.60;99.90;;;;;;5045639;28;20430;-86
2021/08/01 06:24:38;;;;;;;5.63;4.57;;;17.60;99.90;;;;;;5047696;28;20479;-84
2021/08/01 06:27:06;;;;;;;5.17;4.40;;;17.60;99.90;;;;;;5040145;28;20474;-85
2021/08/01 06:29:32;;;;;;;4.87;3.77;;;17.60;99.90;;;;;;5040326;28;20477;-86
2021/08/01 06:31:59;;;;;;;3.87;3.43;;;17.80;99.90;;;;;;5044315;28;20521;-86
2021/08/01 06:34:25;;;;;;;5.10;3.40;;;17.80;99.90;;;;;;5040290;28;20578;-85
2021/08/01 06:36:52;;;;;;;4.73;3.47;;;17.80;99.90;;;;;;5041756;28;20467;-85
2021/08/01 06:39:19;;;;;;;4.83;4.10;;;17.80;99.90;;;;;;5051035;28;20458;-86
2021/08/01 06:41:45;;;;;;;3.40;3.10;;;17.80;99.90;;;;;;5043712;28;20446;-85
2021/08/01 06:44:13;;;;;;;3.70;3.40;;;17.80;99.90;;;;;;5040713;28;20431;-86
2021/08/01 06:46:40;;;;;;;6.40;4.67;;;18.00;99.90;;;;;;5041057;28;20494;-86
2021/08/01 06:49:08;;;;;;;4.70;3.20;;;17.90;99.90;;;;;;5041168;28;20455;-86
2021/08/01 06:51:34;;;;;;;3.23;2.93;;;17.90;99.90;;;;;;5043415;28;20524;-85
2021/08/01 06:54:01;;;;;;;6.90;3.93;;;17.90;99.90;;;;;;5042632;28;20479;-86
2021/08/01 06:56:27;;;;;;;3.37;3.07;;;17.90;99.90;;;;;;5040134;28;20463;-86
2021/08/01 06:58:54;;;;;;;5.93;3.83;;;18.00;99.90;;;;;;5040562;28;20474;-86
2021/08/01 07:01:22;;;;;;;5.70;3.87;;;18.10;99.90;;;;;;5042609;28;20455;-85
2021/08/01 07:03:49;;;;;;;4.10;3.70;;;18.10;99.90;;;;;;5054111;28;20435;-84
2021/08/01 07:06:15;;;;;;;3.97;3.60;;;18.30;99.90;;;;;;5054270;28;20579;-85
2021/08/01 07:08:42;;;;;;;3.57;2.90;;;18.20;99.90;;;;;;5056007;28;20447;-85
2021/08/01 07:11:08;;;;;;;3.50;3.20;;;18.10;99.90;;;;;;5051348;28;20427;-86
2021/08/01 07:13:36;;;;;;;3.27;3.07;;;18.10;99.90;;;;;;5044689;28;20482;-86
2021/08/01 07:16:03;;;;;;;4.07;3.77;;;18.10;99.90;;;;;;5040209;28;20522;-86
2021/08/01 07:18:31;;;;;;;9.43;3.20;;;18.10;99.90;;;;;;5043593;28;20447;-85
2021/08/01 07:20:58;;;;;;;3.70;3.40;;;18.10;99.90;;;;;;5041960;28;20450;-85
2021/08/01 07:23:27;;;;;;;4.43;2.97;;;18.20;99.90;;;;;;5042080;28;20467;-85
2021/08/01 07:25:53;;;;;;;3.07;2.77;;;18.20;99.90;;;;;;5042428;28;20489;-83
2021/08/01 07:28:20;;;;;;;3.03;2.83;;;18.30;99.90;;;;;;5038655;28;20447;-85
2021/08/01 07:30:46;;;;;;;3.40;3.03;;;18.40;99.90;;;;;;5039223;28;20526;-84
2021/08/01 07:33:13;;;;;;;3.67;3.13;;;18.30;99.90;;;;;;5040664;28;20474;-85
2021/08/01 07:35:42;;;;;;;3.00;2.80;;;18.40;99.90;;;;;;5040912;28;20486;-85
2021/08/01 07:38:08;;;;;;;3.13;2.93;;;18.40;99.90;;;;;;5041901;28;20443;-85
2021/08/01 07:40:35;;;;;;;3.57;3.27;;;18.40;99.90;;;;;;5041900;28;20477;-84
2021/08/01 07:43:01;;;;;;;5.90;2.60;;;18.50;99.90;;;;;;5040895;28;20446;-84
2021/08/01 07:45:31;;;;;;;6.17;2.90;;;18.50;99.90;;;;;;5054844;28;20466;-85
2021/08/01 07:47:58;;;;;;;3.47;3.17;;;18.70;99.90;;;;;;5058011;28;20423;-84
2021/08/01 07:50:25;;;;;;;2.70;2.50;;;18.70;99.90;;;;;;5053448;28;20485;-86
2021/08/01 07:52:53;;;;;;;7.07;2.50;;;18.70;99.90;;;;;;5043535;28;20439;-86
2021/08/01 07:55:20;;;;;;;5.17;3.43;;;18.70;99.90;;;;;;5043892;28;20491;-85
2021/08/01 07:57:49;;;;;;;3.63;3.30;;;18.70;99.90;;;;;;5043946;28;20880;-86
2021/08/01 08:00:16;;;;;;;3.10;2.83;;;18.70;99.90;;;;;;5042844;28;20455;-86
2021/08/01 08:02:43;;;;;;;3.57;3.27;;;18.80;99.90;;;;;;5043844;28;20447;-85
2021/08/01 08:05:11;;;;;;;4.00;3.60;;;19.00;99.90;;;;;;5046854;28;20533;-85
2021/08/01 08:07:38;;;;;;;2.87;2.67;;;19.00;99.90;;;;;;5045004;28;20471;-85
2021/08/01 08:10:09;;;;;;;3.60;3.33;;;19.00;99.90;;;;;;5042385;28;20617;-85
2021/08/01 08:12:38;;;;;;;3.73;3.43;;;18.90;99.90;;;;;;5042257;28;20507;-87
2021/08/01 08:15:06;;;;;;;3.40;3.10;;;18.90;99.90;;;;;;5042199;28;20490;-86
2021/08/01 08:17:34;;;;;;;6.00;4.93;;;18.90;99.90;;;;;;5040241;28;20447;-86
2021/08/01 08:20:01;;;;;;;4.77;4.03;;;18.90;99.90;;;;;;5041137;28;20459;-86
2021/08/01 08:22:28;;;;;;;3.28;2.97;;;18.80;99.90;;;;;;5041254;28;20443;-85
2021/08/01 08:24:55;;;;;;;4.07;3.77;;;18.60;99.90;;;;;;5040125;28;20211;-87
2021/08/01 08:27:23;;;;;;;4.50;4.10;;;18.90;99.90;;;;;;5047957;28;20469;-85
2021/08/01 08:29:50;;;;;;;4.73;3.10;;;18.80;99.90;;;;;;5057370;28;20435;-85
2021/08/01 08:32:16;;;;;;;7.50;4.03;;;18.60;99.90;;;;;;5049849;28;20442;-86
2021/08/01 08:34:43;;;;;;;3.50;3.10;;;18.70;99.90;;;;;;5040697;28;20525;-84
2021/08/01 08:37:09;;;;;;;4.33;3.60;;;18.60;99.90;;;;;;5040990;28;20455;-85
2021/08/01 08:39:36;;;;;;;6.10;4.10;;;18.80;99.90;;;;;;5044747;28;20455;-85
2021/08/01 08:42:03;;;;;;;4.57;3.53;;;18.80;99.90;;;;;;5045038;28;20485;-85
2021/08/01 08:44:31;;;;;;;4.33;3.70;;;19.00;99.90;;;;;;5042942;28;20443;-85
2021/08/01 08:46:58;;;;;;;5.57;3.53;;;19.00;99.90;;;;;;5043255;28;20528;-85
2021/08/01 08:49:27;;;;;;;3.40;3.20;;;19.00;99.90;;;;;;5043921;28;20447;-85
2021/08/01 08:51:54;;;;;;;4.60;4.20;;;18.90;99.90;;;;;;5041603;28;20489;-84
2021/08/01 08:54:26;;;;;;;3.87;3.53;;;19.00;99.90;;;;;;5042299;28;20455;-85
2021/08/01 08:56:56;;;;;;;5.13;4.03;;;19.10;99.90;;;;;;5043141;28;20498;-87
2021/08/01 08:59:25;;;;;;;3.83;3.53;;;19.10;99.90;;;;;;5042873;28;20431;-85
2021/08/01 09:01:53;;;;;;;4.43;3.93;;;19.10;99.90;;;;;;5042485;28;20486;-86
2021/08/01 09:04:21;;;;;;;6.10;4.10;;;19.20;99.90;;;;;;5042098;28;20493;-86
2021/08/01 09:06:49;;;;;;;3.60;3.40;;;19.30;99.90;;;;;;5046892;28;20493;-86
2021/08/01 09:09:16;;;;;;;3.47;3.27;;;19.40;99.90;;;;;;5049459;28;20435;-85
2021/08/01 09:11:44;;;;;;;4.43;4.03;;;19.40;99.90;;;;;;5060363;28;20423;-84
2021/08/01 09:14:20;;;;;;;7.00;4.23;;;19.40;99.90;;;;;;5045025;28;20844;-85
2021/08/01 09:16:49;;;;;;;3.83;3.63;;;19.50;99.90;;;;;;5047323;28;20445;-86
2021/08/01 09:19:25;;;;;;;7.13;3.60;;;19.50;99.90;;;;;;5052160;28;20855;-84
2021/08/01 09:28:36;;;;;;;5.10;4.43;;;;;;;;;;5042665;28;20956;-83
2021/08/01 09:31:05;;;;;;;4.30;3.90;;;19.60;99.90;;;;;;5042505;28;20445;-84
2021/08/01 09:33:36;;;;;;;4.50;4.10;;;19.70;99.90;;;;;;5050364;28;20426;-83
2021/08/01 09:36:13;;;;;;;3.73;3.53;;;19.50;99.90;;;;;;5058317;28;20521;-83
2021/08/01 09:38:50;;;;;;;3.80;3.50;;;19.60;99.90;;;;;;5058008;28;20458;-86
2021/08/01 09:41:19;;;;;;;3.73;3.37;;;19.50;99.90;;;;;;5053632;28;20435;-85
2021/08/01 09:43:47;;;;;;;4.23;3.80;;;19.60;99.90;;;;;;5047576;28;20448;-85
2021/08/01 09:46:14;;;;;;;3.67;3.37;;;19.80;99.90;;;;;;5049197;28;20467;-85
2021/08/01 09:48:41;;;;;;;4.60;4.20;;;;;;;;;;5041207;28;20447;-85
2021/08/01 09:51:15;;;;;;;4.90;3.75;;;20.00;99.90;;;;;;5041415;28;20478;-85
2021/08/01 09:53:47;;;;;;;5.93;4.37;;;20.00;99.90;;;;;;5044045;28;20197;-85
2021/08/01 09:56:25;;;;;;;3.80;3.50;;;19.90;99.90;;;;;;5047115;28;20554;-87
2021/08/01 09:59:09;;;;;;;3.88;3.58;;;20.40;99.90;;;;;;5049271;28;20490;-86
2021/08/01 10:01:52;;;;;;;3.53;3.00;;;20.30;99.90;;;;;;5056704;28;20193;-83
2021/08/01 10:04:37;;;;;;;4.00;3.40;;;20.40;99.90;;;;;;5043484;28;20431;-85
2021/08/01 10:07:14;;;;;;;4.43;4.03;;;20.40;99.90;;;;;;5044146;28;20494;-84
2021/08/01 10:09:48;;;;;;;4.83;4.33;;;20.30;99.90;;;;;;5059135;28;20419;-84
2021/08/01 10:12:22;;;;;;;4.10;3.80;;;20.20;99.90;;;;;;5058850;28;20450;-86
2021/08/01 10:14:57;;;;;;;4.50;4.07;;;20.50;99.90;;;;;;5053360;28;20432;-86
2021/08/01 10:17:29;;;;;;;5.00;3.80;;;20.30;99.90;;;;;;5056108;28;20431;-85
2021/08/01 10:20:01;;;;;;;3.03;2.60;;;20.30;99.90;;;;;;5040821;28;20922;-86
2021/08/01 10:22:40;;;;;;;3.43;3.13;;;20.40;99.90;;;;;;5040950;28;20422;-85
2021/08/01 10:25:14;;;;;;;3.20;3.00;;;20.60;99.90;;;;;;5046405;28;20463;-84
2021/08/01 10:27:54;;;;;;;12.40;8.03;;;20.60;99.90;;;;;;5044248;28;20412;-85
2021/08/01 10:30:32;;;;;;;4.30;3.70;;;20.60;99.90;;;;;;5041395;28;20423;-85
2021/08/01 10:33:08;;;;;;;3.23;2.93;;;20.60;99.90;;;;;;5040694;28;20491;-85
2021/08/01 10:35:44;;;;;;;3.90;3.50;;;20.60;99.90;;;;;;5039403;28;20529;-84
2021/08/01 10:38:25;;;;;;;3.40;3.10;;;20.50;99.90;;;;;;5040363;28;20434;-84
2021/08/01 10:41:05;;;;;;;3.53;2.97;;;20.70;99.90;;;;;;5038175;28;20197;-85
2021/08/01 10:43:41;;;;;;;2.60;2.40;;;20.80;99.90;;;;;;5038547;28;20546;-85
2021/08/01 10:46:15;;;;;;;4.90;3.40;;;21.00;99.90;;;;;;5041294;28;20475;-85
2021/08/01 10:48:52;;;;;;;4.07;3.70;;;20.90;99.90;;;;;;5052107;28;20435;-84
2021/08/01 10:51:24;;;;;;;6.67;3.27;;;21.00;99.90;;;;;;5058172;28;20438;-85
2021/08/01 10:54:35;;;;;;;8.20;3.80;;;21.00;99.90;;;;;;5055956;28;20454;-85
2021/08/01 10:57:18;;;;;;;3.70;3.40;;;21.00;99.90;;;;;;5058147;28;20487;-85
2021/08/01 11:00:19;;;;;;;4.63;3.70;;;21.00;99.90;;;;;;5057738;28;20494;-85
2021/08/01 11:03:15;;;;;;;9.70;3.90;;;21.10;99.90;;;;;;5047172;28;20442;-86
2021/08/01 11:05:42;;;;;;;3.33;3.13;;;21.20;99.90;;;;;;5039463;28;20467;-85
2021/08/01 11:08:10;;;;;;;4.37;3.97;;;21.10;99.90;;;;;;5037991;28;20509;-84
2021/08/01 11:10:47;;;;;;;4.80;4.10;;;21.30;99.90;;;;;;5040715;28;20478;-86
2021/08/01 11:13:42;;;;;;;6.70;3.70;;;21.30;99.90;;;;;;5039276;28;20442;-85
2021/08/01 11:16:13;;;;;;;4.50;4.20;;;21.00;99.90;;;;;;5037589;28;20894;-85
2021/08/01 11:18:44;;;;;;;5.30;3.60;;;21.00;99.90;;;;;;5038225;28;20435;-85
2021/08/01 11:21:37;;;;;;;5.33;3.07;;;21.00;99.90;;;;;;5038931;28;20451;-85
2021/08/01 11:24:14;;;;;;;4.07;3.60;;;20.90;99.90;;;;;;5043164;28;20447;-85
2021/08/01 11:27:16;;;;;;;4.53;4.00;;;20.90;99.90;;;;;;5045817;28;20472;-85
2021/08/01 11:30:06;;;;;;;3.50;3.20;;;21.00;99.90;;;;;;5054830;28;20194;-84
2021/08/01 11:32:57;;;;;;;3.47;3.17;;;21.20;99.90;;;;;;5053055;28;20453;-85
2021/08/01 11:35:27;;;;;;;4.37;3.50;;;21.40;99.90;;;;;;5056195;28;20478;-84
2021/08/01 11:38:09;;;;;;;3.57;3.17;;;21.20;99.90;;;;;;5056901;28;20474;-84
2021/08/01 11:40:48;;;;;;;3.40;3.10;;;21.40;99.90;;;;;;5055879;28;20427;-84
2021/08/01 11:43:22;;;;;;;4.90;3.90;;;21.50;99.90;;;;;;5055964;28;20454;-85
2021/08/01 11:46:03;;;;;;;3.53;3.33;;;21.40;99.90;;;;;;5089837;22;21007;-82
2021/08/01 11:48:35;;;;;;;5.47;3.20;;;21.60;99.90;;;;;;5040159;28;20810;-82
2021/08/01 11:51:10;;;;;;;2.63;2.43;;;21.60;99.90;;;;;;5039343;28;20444;-83
2021/08/01 11:53:38;;;;;;;2.90;2.70;;;21.50;99.90;;;;;;5039592;28;20842;-82
2021/08/01 11:56:08;;;;;;;2.97;2.67;;;21.70;99.90;;;;;;5039463;28;20541;-83
2021/08/01 11:58:42;;;;;;;3.20;2.90;;;21.70;99.90;;;;;;5042385;28;20473;-81
2021/08/01 12:01:11;;;;;;;5.20;2.80;;;21.60;99.90;;;;;;5039552;28;20431;-81
2021/08/01 12:03:40;;;;;;;3.17;2.87;;;21.40;99.90;;;;;;5041336;28;20485;-82
2021/08/01 12:06:06;;;;;;;2.73;2.30;;;21.50;99.90;;;;;;5041615;28;20993;-83
2021/08/01 12:08:34;;;;;;;3.07;2.87;;;21.60;99.90;;;;;;5043432;28;20950;-84
2021/08/01 12:11:09;;;;;;;3.97;3.70;;;21.70;99.90;;;;;;5042542;28;20435;-82
2021/08/01 12:13:40;;;;;;;3.10;2.90;;;21.70;99.90;;;;;;5043580;28;20454;-81
2021/08/01 12:16:17;;;;;;;3.73;3.40;;;21.50;99.90;;;;;;5051962;28;20509;-82
2021/08/01 12:18:44;;;;;;;8.70;6.87;;;21.50;99.90;;;;;;5054445;28;20450;-82
2021/08/01 12:21:28;;;;;;;6.60;4.80;;;21.50;99.90;;;;;;5054318;28;20443;-80
2021/08/01 12:23:55;;;;;;;3.37;3.07;;;21.60;99.90;;;;;;5053502;28;20431;-83
2021/08/01 12:26:38;;;;;;;3.90;3.10;;;21.60;99.90;;;;;;5053442;28;20569;-83
2021/08/01 12:29:06;;;;;;;4.70;3.40;;;21.60;99.90;;;;;;5055926;28;20427;-82
2021/08/01 12:31:33;;;;;;;3.83;3.53;;;21.60;99.90;;;;;;5054896;28;20450;-82
2021/08/01 12:34:00;;;;;;;4.60;3.73;;;21.70;99.90;;;;;;5057051;28;20537;-82
2021/08/01 12:36:27;;;;;;;5.40;4.30;;;21.60;99.90;;;;;;5057811;28;20513;-83
2021/08/01 12:38:54;;;;;;;3.17;2.97;;;21.70;99.90;;;;;;5054393;28;20454;-82
2021/08/01 12:41:24;;;;;;;4.03;3.70;;;21.80;99.90;;;;;;5054403;28;20482;-84
2021/08/01 12:43:51;;;;;;;3.50;3.20;;;21.90;99.90;;;;;;5057021;28;20451;-82
2021/08/01 12:46:20;;;;;;;3.90;3.60;;;22.00;99.90;;;;;;5055534;28;20533;-82
2021/08/01 12:48:48;;;;;;;3.50;3.20;;;22.10;99.90;;;;;;5054929;28;20462;-82
2021/08/01 12:51:15;;;;;;;2.97;2.77;;;22.10;99.90;;;;;;5053711;28;20450;-82
2021/08/01 12:53:42;;;;;;;2.50;2.30;;;22.10;99.90;;;;;;5055066;28;20451;-82
2021/08/01 13:18:34;;;;;;;3.23;2.93;;;22.20;99.90;;;;;;4982652;22;20450;-84
2021/08/01 13:21:15;;;;;;;2.83;2.63;;;21.90;99.90;;;;;;5046725;28;20838;-85
2021/08/01 13:23:44;;;;;;;3.27;3.07;;;21.90;99.90;;;;;;5044207;28;20453;-82
2021/08/01 13:26:24;;;;;;;2.70;2.50;;;21.90;99.90;;;;;;5043894;28;20497;-83
2021/08/01 13:29:00;;;;;;;4.10;3.40;;;21.90;99.90;;;;;;5043268;28;21005;-84
2021/08/01 13:31:29;;;;;;;2.60;2.30;;;22.00;99.90;;;;;;5044449;28;20957;-85